sensor_id;sensor_type;location;lat;lon;timestamp;P1;durP1;ratioP1;P2;durP2;ratioP2
7013;SDS011;3547;50.774;12.918;2024-02-26T00:00:47;10.73;;;6.83;;
7013;SDS011;3547;50.774;12.918;2024-02-26T00:03:14;13.83;;;8.13;;
7013;SDS011;3547;50.774;12.918;2024-02-26T00:05:40;15.03;;;8.60;;
7013;SDS011;3547;50.774;12.918;2024-02-26T00:08:06;12.43;;;7.77;;
7013;SDS011;3547;50.774;12.918;2024-02-26T00:10:32;11.43;;;7.70;;
7013;SDS011;3547;50.774;12.918;2024-02-26T00:12:58;13.07;;;6.73;;
7013;SDS011;3547;50.774;12.918;2024-02-26T00:15:25;11.40;;;7.70;;
7013;SDS011;3547;50.774;12.918;2024-02-26T00:17:51;13.20;;;8.00;;
7013;SDS011;3547;50.774;12.918;2024-02-26T00:20:17;10.53;;;6.67;;
7013;SDS011;3547;50.774;12.918;2024-02-26T00:22:43;11.80;;;7.37;;
7013;SDS011;3547;50.774;12.918;2024-02-26T00:25:09;13.83;;;8.07;;
7013;SDS011;3547;50.774;12.918;2024-02-26T00:27:37;11.87;;;6.90;;
7013;SDS011;3547;50.774;12.918;2024-02-26T00:30:06;12.47;;;7.60;;
7013;SDS011;3547;50.774;12.918;2024-02-26T00:32:32;13.67;;;7.67;;
7013;SDS011;3547;50.774;12.918;2024-02-26T00:34:58;12.07;;;7.40;;
7013;SDS011;3547;50.774;12.918;2024-02-26T00:37:24;11.87;;;7.80;;
7013;SDS011;3547;50.774;12.918;2024-02-26T00:39:50;12.80;;;7.83;;
7013;SDS011;3547;50.774;12.918;2024-02-26T00:42:18;12.37;;;8.10;;
7013;SDS011;3547;50.774;12.918;2024-02-26T00:44:44;11.23;;;7.80;;
7013;SDS011;3547;50.774;12.918;2024-02-26T00:47:10;12.30;;;7.07;;
7013;SDS011;3547;50.774;12.918;2024-02-26T00:49:37;11.70;;;7.67;;
7013;SDS011;3547;50.774;12.918;2024-02-26T00:52:03;10.67;;;6.70;;
7013;SDS011;3547;50.774;12.918;2024-02-26T00:54:29;14.17;;;7.60;;
7013;SDS011;3547;50.774;12.918;2024-02-26T00:56:55;10.67;;;7.43;;
7013;SDS011;3547;50.774;12.918;2024-02-26T00:59:22;11.93;;;7.70;;
7013;SDS011;3547;50.774;12.918;2024-02-26T01:01:48;13.13;;;7.53;;
7013;SDS011;3547;50.774;12.918;2024-02-26T01:04:14;10.97;;;7.07;;
7013;SDS011;3547;50.774;12.918;2024-02-26T01:06:40;11.70;;;7.70;;
7013;SDS011;3547;50.774;12.918;2024-02-26T01:12:29;11.63;;;6.87;;
7013;SDS011;3547;50.774;12.918;2024-02-26T01:14:55;11.20;;;6.43;;
7013;SDS011;3547;50.774;12.918;2024-02-26T01:17:21;12.07;;;7.27;;
7013;SDS011;3547;50.774;12.918;2024-02-26T01:19:47;11.27;;;6.90;;
7013;SDS011;3547;50.774;12.918;2024-02-26T01:22:13;11.27;;;6.17;;
7013;SDS011;3547;50.774;12.918;2024-02-26T01:24:39;11.83;;;6.90;;
7013;SDS011;3547;50.774;12.918;2024-02-26T01:27:06;11.30;;;7.00;;
7013;SDS011;3547;50.774;12.918;2024-02-26T01:29:33;10.43;;;6.73;;
7013;SDS011;3547;50.774;12.918;2024-02-26T01:31:59;13.70;;;7.43;;
7013;SDS011;3547;50.774;12.918;2024-02-26T01:34:25;13.80;;;7.30;;
7013;SDS011;3547;50.774;12.918;2024-02-26T01:36:51;10.83;;;6.40;;
7013;SDS011;3547;50.774;12.918;2024-02-26T01:39:18;12.40;;;7.30;;
7013;SDS011;3547;50.774;12.918;2024-02-26T01:41:44;10.50;;;6.43;;
7013;SDS011;3547;50.774;12.918;2024-02-26T01:44:11;8.83;;;6.10;;
7013;SDS011;3547;50.774;12.918;2024-02-26T01:46:39;9.37;;;6.00;;
7013;SDS011;3547;50.774;12.918;2024-02-26T01:49:05;9.37;;;5.83;;
7013;SDS011;3547;50.774;12.918;2024-02-26T01:51:33;11.37;;;6.33;;
7013;SDS011;3547;50.774;12.918;2024-02-26T01:54:01;8.87;;;6.07;;
7013;SDS011;3547;50.774;12.918;2024-02-26T01:56:29;9.33;;;5.63;;
7013;SDS011;3547;50.774;12.918;2024-02-26T01:58:57;8.57;;;5.37;;
7013;SDS011;3547;50.774;12.918;2024-02-26T02:01:27;9.03;;;6.10;;
7013;SDS011;3547;50.774;12.918;2024-02-26T02:03:58;9.07;;;5.13;;
7013;SDS011;3547;50.774;12.918;2024-02-26T02:06:26;10.57;;;5.73;;
7013;SDS011;3547;50.774;12.918;2024-02-26T02:08:56;10.63;;;6.23;;
7013;SDS011;3547;50.774;12.918;2024-02-26T02:11:22;10.10;;;6.30;;
7013;SDS011;3547;50.774;12.918;2024-02-26T02:13:49;8.43;;;5.80;;
7013;SDS011;3547;50.774;12.918;2024-02-26T02:16:15;9.43;;;5.00;;
7013;SDS011;3547;50.774;12.918;2024-02-26T02:18:41;9.67;;;6.00;;
7013;SDS011;3547;50.774;12.918;2024-02-26T02:21:07;12.47;;;5.80;;
7013;SDS011;3547;50.774;12.918;2024-02-26T02:23:33;10.73;;;5.90;;
7013;SDS011;3547;50.774;12.918;2024-02-26T02:25:59;8.67;;;5.20;;
7013;SDS011;3547;50.774;12.918;2024-02-26T02:28:26;7.83;;;5.40;;
7013;SDS011;3547;50.774;12.918;2024-02-26T02:30:53;9.03;;;5.13;;
7013;SDS011;3547;50.774;12.918;2024-02-26T02:33:20;8.27;;;4.77;;
7013;SDS011;3547;50.774;12.918;2024-02-26T02:35:47;7.83;;;4.73;;
7013;SDS011;3547;50.774;12.918;2024-02-26T02:38:13;9.93;;;5.03;;
7013;SDS011;3547;50.774;12.918;2024-02-26T02:40:39;10.47;;;6.07;;
7013;SDS011;3547;50.774;12.918;2024-02-26T02:43:05;7.50;;;4.90;;
7013;SDS011;3547;50.774;12.918;2024-02-26T02:45:31;6.37;;;4.33;;
7013;SDS011;3547;50.774;12.918;2024-02-26T02:47:57;7.40;;;4.83;;
7013;SDS011;3547;50.774;12.918;2024-02-26T02:50:24;6.70;;;4.20;;
7013;SDS011;3547;50.774;12.918;2024-02-26T02:52:50;7.43;;;4.53;;
7013;SDS011;3547;50.774;12.918;2024-02-26T02:55:16;7.77;;;5.30;;
7013;SDS011;3547;50.774;12.918;2024-02-26T02:57:42;9.30;;;5.13;;
7013;SDS011;3547;50.774;12.918;2024-02-26T03:00:09;7.57;;;4.90;;
7013;SDS011;3547;50.774;12.918;2024-02-26T03:02:36;6.70;;;4.03;;
7013;SDS011;3547;50.774;12.918;2024-02-26T03:05:03;7.30;;;5.00;;
7013;SDS011;3547;50.774;12.918;2024-02-26T03:07:29;8.83;;;4.87;;
7013;SDS011;3547;50.774;12.918;2024-02-26T03:09:56;7.67;;;4.83;;
7013;SDS011;3547;50.774;12.918;2024-02-26T03:12:22;8.73;;;4.97;;
7013;SDS011;3547;50.774;12.918;2024-02-26T03:14:48;7.40;;;4.83;;
7013;SDS011;3547;50.774;12.918;2024-02-26T03:17:17;7.57;;;4.30;;
7013;SDS011;3547;50.774;12.918;2024-02-26T03:19:45;7.97;;;5.43;;
7013;SDS011;3547;50.774;12.918;2024-02-26T03:22:18;7.73;;;4.77;;
7013;SDS011;3547;50.774;12.918;2024-02-26T03:24:45;9.83;;;5.43;;
7013;SDS011;3547;50.774;12.918;2024-02-26T03:27:12;9.27;;;6.13;;
7013;SDS011;3547;50.774;12.918;2024-02-26T03:29:38;7.77;;;5.17;;
7013;SDS011;3547;50.774;12.918;2024-02-26T03:32:05;12.43;;;5.80;;
7013;SDS011;3547;50.774;12.918;2024-02-26T03:34:34;11.70;;;6.87;;
7013;SDS011;3547;50.774;12.918;2024-02-26T03:37:00;10.57;;;6.67;;
7013;SDS011;3547;50.774;12.918;2024-02-26T03:39:27;11.63;;;7.43;;
7013;SDS011;3547;50.774;12.918;2024-02-26T03:41:53;14.63;;;7.50;;
7013;SDS011;3547;50.774;12.918;2024-02-26T03:44:19;10.70;;;6.03;;
7013;SDS011;3547;50.774;12.918;2024-02-26T03:46:45;12.83;;;7.37;;
7013;SDS011;3547;50.774;12.918;2024-02-26T03:49:12;9.23;;;6.37;;
7013;SDS011;3547;50.774;12.918;2024-02-26T03:51:38;11.47;;;6.70;;
7013;SDS011;3547;50.774;12.918;2024-02-26T03:57:27;11.10;;;6.27;;
7013;SDS011;3547;50.774;12.918;2024-02-26T03:59:53;10.80;;;5.73;;
7013;SDS011;3547;50.774;12.918;2024-02-26T04:02:19;11.40;;;5.93;;
7013;SDS011;3547;50.774;12.918;2024-02-26T04:04:46;14.10;;;6.17;;
7013;SDS011;3547;50.774;12.918;2024-02-26T04:07:13;9.80;;;5.73;;
7013;SDS011;3547;50.774;12.918;2024-02-26T04:09:39;9.63;;;6.23;;
7013;SDS011;3547;50.774;12.918;2024-02-26T04:12:05;6.13;;;5.10;;
7013;SDS011;3547;50.774;12.918;2024-02-26T04:14:31;7.50;;;4.80;;
7013;SDS011;3547;50.774;12.918;2024-02-26T04:16:57;6.33;;;4.53;;
7013;SDS011;3547;50.774;12.918;2024-02-26T04:19:24;6.97;;;4.87;;
7013;SDS011;3547;50.774;12.918;2024-02-26T04:21:50;6.87;;;4.33;;
7013;SDS011;3547;50.774;12.918;2024-02-26T04:24:16;6.20;;;4.37;;
7013;SDS011;3547;50.774;12.918;2024-02-26T04:26:42;6.83;;;3.70;;
7013;SDS011;3547;50.774;12.918;2024-02-26T04:29:08;7.20;;;3.90;;
7013;SDS011;3547;50.774;12.918;2024-02-26T04:31:34;5.60;;;3.87;;
7013;SDS011;3547;50.774;12.918;2024-02-26T04:34:02;8.87;;;4.40;;
7013;SDS011;3547;50.774;12.918;2024-02-26T04:36:28;6.97;;;4.30;;
7013;SDS011;3547;50.774;12.918;2024-02-26T04:38:54;6.57;;;4.10;;
7013;SDS011;3547;50.774;12.918;2024-02-26T04:41:24;8.47;;;4.23;;
7013;SDS011;3547;50.774;12.918;2024-02-26T04:43:50;6.10;;;4.20;;
7013;SDS011;3547;50.774;12.918;2024-02-26T04:46:16;7.87;;;3.97;;
7013;SDS011;3547;50.774;12.918;2024-02-26T04:48:43;7.87;;;3.87;;
7013;SDS011;3547;50.774;12.918;2024-02-26T04:51:12;6.27;;;4.13;;
7013;SDS011;3547;50.774;12.918;2024-02-26T04:53:38;4.73;;;3.50;;
7013;SDS011;3547;50.774;12.918;2024-02-26T04:56:07;5.93;;;3.67;;
7013;SDS011;3547;50.774;12.918;2024-02-26T04:58:33;8.90;;;4.47;;
7013;SDS011;3547;50.774;12.918;2024-02-26T05:00:59;8.60;;;4.97;;
7013;SDS011;3547;50.774;12.918;2024-02-26T05:03:26;4.13;;;3.10;;
7013;SDS011;3547;50.774;12.918;2024-02-26T05:05:52;5.23;;;3.40;;
7013;SDS011;3547;50.774;12.918;2024-02-26T05:08:18;4.70;;;3.63;;
7013;SDS011;3547;50.774;12.918;2024-02-26T05:10:45;4.50;;;3.60;;
7013;SDS011;3547;50.774;12.918;2024-02-26T05:13:11;6.00;;;3.97;;
7013;SDS011;3547;50.774;12.918;2024-02-26T05:15:37;4.97;;;3.60;;
7013;SDS011;3547;50.774;12.918;2024-02-26T05:18:03;5.20;;;3.77;;
7013;SDS011;3547;50.774;12.918;2024-02-26T05:20:30;5.63;;;3.50;;
7013;SDS011;3547;50.774;12.918;2024-02-26T05:22:57;5.17;;;3.60;;
7013;SDS011;3547;50.774;12.918;2024-02-26T05:25:24;6.63;;;3.87;;
7013;SDS011;3547;50.774;12.918;2024-02-26T05:27:50;5.13;;;3.90;;
7013;SDS011;3547;50.774;12.918;2024-02-26T05:30:19;6.13;;;4.10;;
7013;SDS011;3547;50.774;12.918;2024-02-26T05:32:46;6.97;;;3.60;;
7013;SDS011;3547;50.774;12.918;2024-02-26T05:35:12;7.90;;;4.20;;
7013;SDS011;3547;50.774;12.918;2024-02-26T05:37:38;9.53;;;4.20;;
7013;SDS011;3547;50.774;12.918;2024-02-26T05:40:05;7.20;;;3.97;;
7013;SDS011;3547;50.774;12.918;2024-02-26T05:42:32;4.77;;;3.40;;
7013;SDS011;3547;50.774;12.918;2024-02-26T05:44:59;7.13;;;3.70;;
7013;SDS011;3547;50.774;12.918;2024-02-26T05:47:25;5.77;;;2.97;;
7013;SDS011;3547;50.774;12.918;2024-02-26T05:49:51;5.40;;;3.53;;
7013;SDS011;3547;50.774;12.918;2024-02-26T05:52:17;6.03;;;3.47;;
7013;SDS011;3547;50.774;12.918;2024-02-26T05:54:43;7.97;;;4.00;;
7013;SDS011;3547;50.774;12.918;2024-02-26T05:57:09;7.93;;;4.33;;
7013;SDS011;3547;50.774;12.918;2024-02-26T05:59:35;6.53;;;4.10;;
7013;SDS011;3547;50.774;12.918;2024-02-26T06:02:04;6.83;;;3.90;;
7013;SDS011;3547;50.774;12.918;2024-02-26T06:04:31;7.43;;;3.87;;
7013;SDS011;3547;50.774;12.918;2024-02-26T06:06:57;7.87;;;4.33;;
7013;SDS011;3547;50.774;12.918;2024-02-26T06:09:23;4.33;;;3.30;;
7013;SDS011;3547;50.774;12.918;2024-02-26T06:11:49;8.40;;;4.53;;
7013;SDS011;3547;50.774;12.918;2024-02-26T06:14:15;4.87;;;3.53;;
7013;SDS011;3547;50.774;12.918;2024-02-26T06:16:44;6.10;;;4.47;;
7013;SDS011;3547;50.774;12.918;2024-02-26T06:19:10;6.67;;;4.20;;
7013;SDS011;3547;50.774;12.918;2024-02-26T06:21:36;7.77;;;4.73;;
7013;SDS011;3547;50.774;12.918;2024-02-26T06:24:02;6.77;;;4.63;;
7013;SDS011;3547;50.774;12.918;2024-02-26T06:26:28;6.40;;;4.30;;
7013;SDS011;3547;50.774;12.918;2024-02-26T06:28:55;9.00;;;4.97;;
7013;SDS011;3547;50.774;12.918;2024-02-26T06:31:21;7.13;;;4.60;;
7013;SDS011;3547;50.774;12.918;2024-02-26T06:33:49;7.27;;;5.10;;
7013;SDS011;3547;50.774;12.918;2024-02-26T06:36:18;7.40;;;4.00;;
7013;SDS011;3547;50.774;12.918;2024-02-26T06:38:44;6.70;;;5.00;;
7013;SDS011;3547;50.774;12.918;2024-02-26T06:41:11;7.07;;;4.90;;
7013;SDS011;3547;50.774;12.918;2024-02-26T06:43:38;8.37;;;4.63;;
7013;SDS011;3547;50.774;12.918;2024-02-26T06:46:04;6.87;;;4.33;;
7013;SDS011;3547;50.774;12.918;2024-02-26T06:48:32;7.10;;;4.63;;
7013;SDS011;3547;50.774;12.918;2024-02-26T06:50:58;10.03;;;5.33;;
7013;SDS011;3547;50.774;12.918;2024-02-26T06:53:24;6.10;;;4.00;;
7013;SDS011;3547;50.774;12.918;2024-02-26T06:55:51;7.90;;;4.83;;
7013;SDS011;3547;50.774;12.918;2024-02-26T06:58:17;7.33;;;4.47;;
7013;SDS011;3547;50.774;12.918;2024-02-26T07:00:43;9.80;;;3.43;;
7013;SDS011;3547;50.774;12.918;2024-02-26T07:03:09;10.43;;;4.83;;
7013;SDS011;3547;50.774;12.918;2024-02-26T07:05:36;7.57;;;4.27;;
7013;SDS011;3547;50.774;12.918;2024-02-26T07:08:02;6.93;;;4.27;;
7013;SDS011;3547;50.774;12.918;2024-02-26T07:10:28;7.53;;;5.00;;
7013;SDS011;3547;50.774;12.918;2024-02-26T07:12:54;6.70;;;3.90;;
7013;SDS011;3547;50.774;12.918;2024-02-26T07:15:20;5.87;;;4.03;;
7013;SDS011;3547;50.774;12.918;2024-02-26T07:17:46;5.50;;;4.27;;
7013;SDS011;3547;50.774;12.918;2024-02-26T07:20:14;7.67;;;4.57;;
7013;SDS011;3547;50.774;12.918;2024-02-26T07:22:41;7.40;;;4.17;;
7013;SDS011;3547;50.774;12.918;2024-02-26T07:25:08;9.37;;;4.10;;
7013;SDS011;3547;50.774;12.918;2024-02-26T07:27:39;6.37;;;4.23;;
7013;SDS011;3547;50.774;12.918;2024-02-26T07:30:06;6.83;;;4.30;;
7013;SDS011;3547;50.774;12.918;2024-02-26T07:32:34;6.40;;;3.87;;
7013;SDS011;3547;50.774;12.918;2024-02-26T07:35:00;6.37;;;4.37;;
7013;SDS011;3547;50.774;12.918;2024-02-26T07:37:26;5.80;;;3.90;;
7013;SDS011;3547;50.774;12.918;2024-02-26T07:39:52;6.83;;;3.97;;
7013;SDS011;3547;50.774;12.918;2024-02-26T07:42:19;6.67;;;3.77;;
7013;SDS011;3547;50.774;12.918;2024-02-26T07:44:46;9.97;;;4.13;;
7013;SDS011;3547;50.774;12.918;2024-02-26T07:47:12;7.63;;;4.27;;
7013;SDS011;3547;50.774;12.918;2024-02-26T07:49:39;7.40;;;4.20;;
7013;SDS011;3547;50.774;12.918;2024-02-26T07:52:05;4.23;;;3.63;;
7013;SDS011;3547;50.774;12.918;2024-02-26T07:54:31;6.67;;;3.60;;
7013;SDS011;3547;50.774;12.918;2024-02-26T07:56:57;6.50;;;3.93;;
7013;SDS011;3547;50.774;12.918;2024-02-26T07:59:24;7.23;;;3.70;;
7013;SDS011;3547;50.774;12.918;2024-02-26T08:01:50;6.57;;;4.03;;
7013;SDS011;3547;50.774;12.918;2024-02-26T08:04:17;5.63;;;3.60;;
7013;SDS011;3547;50.774;12.918;2024-02-26T08:06:43;5.90;;;3.90;;
7013;SDS011;3547;50.774;12.918;2024-02-26T08:09:09;5.93;;;3.30;;
7013;SDS011;3547;50.774;12.918;2024-02-26T08:11:35;5.87;;;4.40;;
7013;SDS011;3547;50.774;12.918;2024-02-26T08:14:01;4.90;;;3.60;;
7013;SDS011;3547;50.774;12.918;2024-02-26T08:16:27;5.13;;;3.67;;
7013;SDS011;3547;50.774;12.918;2024-02-26T08:18:54;4.60;;;3.03;;
7013;SDS011;3547;50.774;12.918;2024-02-26T08:21:20;4.90;;;3.57;;
7013;SDS011;3547;50.774;12.918;2024-02-26T08:24:02;6.00;;;3.87;;
7013;SDS011;3547;50.774;12.918;2024-02-26T08:26:28;4.20;;;3.57;;
7013;SDS011;3547;50.774;12.918;2024-02-26T08:28:54;4.20;;;2.93;;
7013;SDS011;3547;50.774;12.918;2024-02-26T08:31:21;4.63;;;3.23;;
7013;SDS011;3547;50.774;12.918;2024-02-26T08:33:49;4.30;;;3.57;;
7013;SDS011;3547;50.774;12.918;2024-02-26T08:36:15;4.23;;;3.00;;
7013;SDS011;3547;50.774;12.918;2024-02-26T08:38:41;8.93;;;3.73;;
7013;SDS011;3547;50.774;12.918;2024-02-26T08:41:07;3.90;;;3.17;;
7013;SDS011;3547;50.774;12.918;2024-02-26T08:43:33;3.20;;;2.83;;
7013;SDS011;3547;50.774;12.918;2024-02-26T08:46:00;4.33;;;3.13;;
7013;SDS011;3547;50.774;12.918;2024-02-26T08:48:26;4.43;;;3.30;;
7013;SDS011;3547;50.774;12.918;2024-02-26T08:50:52;4.37;;;3.00;;
7013;SDS011;3547;50.774;12.918;2024-02-26T08:53:18;4.20;;;3.30;;
7013;SDS011;3547;50.774;12.918;2024-02-26T08:55:46;5.73;;;3.53;;
7013;SDS011;3547;50.774;12.918;2024-02-26T08:58:12;4.83;;;3.63;;
7013;SDS011;3547;50.774;12.918;2024-02-26T09:00:38;4.67;;;3.27;;
7013;SDS011;3547;50.774;12.918;2024-02-26T09:03:04;5.47;;;3.40;;
7013;SDS011;3547;50.774;12.918;2024-02-26T09:05:30;3.67;;;3.03;;
7013;SDS011;3547;50.774;12.918;2024-02-26T09:07:56;7.20;;;3.50;;
7013;SDS011;3547;50.774;12.918;2024-02-26T09:10:22;3.30;;;2.87;;
7013;SDS011;3547;50.774;12.918;2024-02-26T09:12:48;5.80;;;3.10;;
7013;SDS011;3547;50.774;12.918;2024-02-26T09:15:15;4.53;;;3.37;;
7013;SDS011;3547;50.774;12.918;2024-02-26T09:17:41;3.17;;;2.67;;
7013;SDS011;3547;50.774;12.918;2024-02-26T09:20:07;4.07;;;2.67;;
7013;SDS011;3547;50.774;12.918;2024-02-26T09:22:34;3.43;;;2.73;;
7013;SDS011;3547;50.774;12.918;2024-02-26T09:25:03;5.10;;;3.07;;
7013;SDS011;3547;50.774;12.918;2024-02-26T09:27:30;5.00;;;3.13;;
7013;SDS011;3547;50.774;12.918;2024-02-26T09:29:57;3.43;;;3.00;;
7013;SDS011;3547;50.774;12.918;2024-02-26T09:32:23;3.73;;;2.93;;
7013;SDS011;3547;50.774;12.918;2024-02-26T09:34:50;4.23;;;3.00;;
7013;SDS011;3547;50.774;12.918;2024-02-26T09:37:16;3.90;;;2.97;;
7013;SDS011;3547;50.774;12.918;2024-02-26T09:39:42;3.37;;;2.80;;
7013;SDS011;3547;50.774;12.918;2024-02-26T09:42:08;4.40;;;3.17;;
7013;SDS011;3547;50.774;12.918;2024-02-26T09:44:39;4.97;;;3.20;;
7013;SDS011;3547;50.774;12.918;2024-02-26T09:47:12;3.67;;;3.13;;
7013;SDS011;3547;50.774;12.918;2024-02-26T09:49:42;3.80;;;3.40;;
7013;SDS011;3547;50.774;12.918;2024-02-26T09:52:09;7.43;;;3.13;;
7013;SDS011;3547;50.774;12.918;2024-02-26T09:54:35;4.30;;;3.20;;
7013;SDS011;3547;50.774;12.918;2024-02-26T09:57:02;5.63;;;3.20;;
7013;SDS011;3547;50.774;12.918;2024-02-26T09:59:37;4.03;;;3.10;;
7013;SDS011;3547;50.774;12.918;2024-02-26T10:02:12;4.67;;;3.10;;
7013;SDS011;3547;50.774;12.918;2024-02-26T10:04:39;3.20;;;2.73;;
7013;SDS011;3547;50.774;12.918;2024-02-26T10:07:10;3.73;;;2.97;;
7013;SDS011;3547;50.774;12.918;2024-02-26T10:09:38;5.63;;;3.23;;
7013;SDS011;3547;50.774;12.918;2024-02-26T10:12:05;3.13;;;2.63;;
7013;SDS011;3547;50.774;12.918;2024-02-26T10:14:33;5.83;;;3.60;;
7013;SDS011;3547;50.774;12.918;2024-02-26T10:16:59;4.40;;;3.10;;
7013;SDS011;3547;50.774;12.918;2024-02-26T10:19:28;3.27;;;2.67;;
7013;SDS011;3547;50.774;12.918;2024-02-26T10:22:00;4.30;;;2.50;;
7013;SDS011;3547;50.774;12.918;2024-02-26T10:24:27;4.67;;;3.40;;
7013;SDS011;3547;50.774;12.918;2024-02-26T10:26:55;5.00;;;3.13;;
7013;SDS011;3547;50.774;12.918;2024-02-26T10:29:22;4.23;;;2.87;;
7013;SDS011;3547;50.774;12.918;2024-02-26T10:31:53;4.07;;;2.60;;
7013;SDS011;3547;50.774;12.918;2024-02-26T10:34:19;3.70;;;2.97;;
7013;SDS011;3547;50.774;12.918;2024-02-26T10:36:46;4.10;;;3.20;;
7013;SDS011;3547;50.774;12.918;2024-02-26T10:39:12;4.63;;;3.20;;
7013;SDS011;3547;50.774;12.918;2024-02-26T10:41:42;3.60;;;2.75;;
7013;SDS011;3547;50.774;12.918;2024-02-26T10:44:09;4.25;;;3.05;;
7013;SDS011;3547;50.774;12.918;2024-02-26T10:46:36;4.60;;;2.85;;
7013;SDS011;3547;50.774;12.918;2024-02-26T10:49:03;3.55;;;2.53;;
7013;SDS011;3547;50.774;12.918;2024-02-26T10:51:31;5.43;;;2.88;;
7013;SDS011;3547;50.774;12.918;2024-02-26T10:54:02;3.35;;;2.92;;
7013;SDS011;3547;50.774;12.918;2024-02-26T10:56:33;3.75;;;2.97;;
7013;SDS011;3547;50.774;12.918;2024-02-26T10:59:00;3.50;;;3.08;;
7013;SDS011;3547;50.774;12.918;2024-02-26T11:01:27;4.20;;;3.30;;
7013;SDS011;3547;50.774;12.918;2024-02-26T11:03:56;4.07;;;3.20;;
7013;SDS011;3547;50.774;12.918;2024-02-26T11:06:24;6.15;;;3.33;;
7013;SDS011;3547;50.774;12.918;2024-02-26T11:08:52;4.25;;;3.00;;
7013;SDS011;3547;50.774;12.918;2024-02-26T11:11:19;3.58;;;3.08;;
7013;SDS011;3547;50.774;12.918;2024-02-26T11:13:48;3.83;;;3.00;;
7013;SDS011;3547;50.774;12.918;2024-02-26T11:16:17;3.08;;;2.78;;
7013;SDS011;3547;50.774;12.918;2024-02-26T11:18:46;6.55;;;2.95;;
7013;SDS011;3547;50.774;12.918;2024-02-26T11:21:16;4.85;;;3.05;;
7013;SDS011;3547;50.774;12.918;2024-02-26T11:23:53;4.57;;;2.60;;
7013;SDS011;3547;50.774;12.918;2024-02-26T11:26:20;2.90;;;2.60;;
7013;SDS011;3547;50.774;12.918;2024-02-26T11:28:48;3.08;;;2.78;;
7013;SDS011;3547;50.774;12.918;2024-02-26T11:31:16;3.60;;;2.70;;
7013;SDS011;3547;50.774;12.918;2024-02-26T11:33:50;3.85;;;2.85;;
7013;SDS011;3547;50.774;12.918;2024-02-26T11:36:17;4.05;;;2.78;;
7013;SDS011;3547;50.774;12.918;2024-02-26T11:38:45;5.75;;;3.17;;
7013;SDS011;3547;50.774;12.918;2024-02-26T11:41:15;4.35;;;3.03;;
7013;SDS011;3547;50.774;12.918;2024-02-26T11:43:52;4.60;;;2.35;;
7013;SDS011;3547;50.774;12.918;2024-02-26T11:49:00;3.05;;;2.50;;
7013;SDS011;3547;50.774;12.918;2024-02-26T11:51:52;3.53;;;2.80;;
7013;SDS011;3547;50.774;12.918;2024-02-26T11:54:48;3.20;;;2.63;;
7013;SDS011;3547;50.774;12.918;2024-02-26T11:57:23;2.75;;;2.50;;
7013;SDS011;3547;50.774;12.918;2024-02-26T12:02:47;3.70;;;2.70;;
7013;SDS011;3547;50.774;12.918;2024-02-26T12:05:20;5.10;;;3.00;;
7013;SDS011;3547;50.774;12.918;2024-02-26T12:08:01;2.80;;;2.50;;
7013;SDS011;3547;50.774;12.918;2024-02-26T12:10:38;3.63;;;2.50;;
7013;SDS011;3547;50.774;12.918;2024-02-26T12:13:10;2.58;;;2.22;;
7013;SDS011;3547;50.774;12.918;2024-02-26T12:18:10;3.58;;;2.42;;
7013;SDS011;3547;50.774;12.918;2024-02-26T12:20:43;3.15;;;2.70;;
7013;SDS011;3547;50.774;12.918;2024-02-26T12:23:14;2.78;;;2.30;;
7013;SDS011;3547;50.774;12.918;2024-02-26T12:25:43;3.30;;;2.80;;
7013;SDS011;3547;50.774;12.918;2024-02-26T12:28:09;5.47;;;2.90;;
7013;SDS011;3547;50.774;12.918;2024-02-26T12:30:35;2.88;;;2.47;;
7013;SDS011;3547;50.774;12.918;2024-02-26T12:33:02;4.70;;;3.10;;
7013;SDS011;3547;50.774;12.918;2024-02-26T12:35:28;3.95;;;2.97;;
7013;SDS011;3547;50.774;12.918;2024-02-26T12:37:57;4.15;;;3.00;;
7013;SDS011;3547;50.774;12.918;2024-02-26T12:40:24;3.83;;;3.08;;
7013;SDS011;3547;50.774;12.918;2024-02-26T12:42:53;3.33;;;2.72;;
7013;SDS011;3547;50.774;12.918;2024-02-26T12:45:20;3.90;;;3.03;;
7013;SDS011;3547;50.774;12.918;2024-02-26T12:47:46;3.63;;;2.92;;
7013;SDS011;3547;50.774;12.918;2024-02-26T12:50:16;4.20;;;3.00;;
7013;SDS011;3547;50.774;12.918;2024-02-26T12:52:43;4.75;;;2.65;;
7013;SDS011;3547;50.774;12.918;2024-02-26T12:55:17;6.85;;;2.70;;
7013;SDS011;3547;50.774;12.918;2024-02-26T12:57:45;4.68;;;3.00;;
7013;SDS011;3547;50.774;12.918;2024-02-26T13:00:18;4.38;;;2.90;;
7013;SDS011;3547;50.774;12.918;2024-02-26T13:02:49;3.17;;;2.78;;
7013;SDS011;3547;50.774;12.918;2024-02-26T13:05:16;5.00;;;3.30;;
7013;SDS011;3547;50.774;12.918;2024-02-26T13:07:45;3.80;;;2.90;;
7013;SDS011;3547;50.774;12.918;2024-02-26T13:10:15;4.05;;;3.10;;
7013;SDS011;3547;50.774;12.918;2024-02-26T13:12:44;5.65;;;3.25;;
7013;SDS011;3547;50.774;12.918;2024-02-26T13:15:15;3.80;;;2.80;;
7013;SDS011;3547;50.774;12.918;2024-02-26T13:17:42;7.18;;;3.30;;
7013;SDS011;3547;50.774;12.918;2024-02-26T13:20:09;3.58;;;2.97;;
7013;SDS011;3547;50.774;12.918;2024-02-26T13:22:36;5.30;;;3.20;;
7013;SDS011;3547;50.774;12.918;2024-02-26T13:25:02;4.78;;;3.17;;
7013;SDS011;3547;50.774;12.918;2024-02-26T13:27:29;4.35;;;3.25;;
7013;SDS011;3547;50.774;12.918;2024-02-26T13:30:11;5.68;;;3.97;;
7013;SDS011;3547;50.774;12.918;2024-02-26T13:32:39;4.57;;;3.50;;
7013;SDS011;3547;50.774;12.918;2024-02-26T13:35:09;4.40;;;3.35;;
7013;SDS011;3547;50.774;12.918;2024-02-26T13:37:38;4.65;;;3.47;;
7013;SDS011;3547;50.774;12.918;2024-02-26T13:40:05;3.83;;;3.03;;
7013;SDS011;3547;50.774;12.918;2024-02-26T13:42:38;6.38;;;4.15;;
7013;SDS011;3547;50.774;12.918;2024-02-26T13:45:05;6.22;;;4.38;;
7013;SDS011;3547;50.774;12.918;2024-02-26T13:47:36;5.90;;;4.05;;
7013;SDS011;3547;50.774;12.918;2024-02-26T13:50:02;5.45;;;4.05;;
7013;SDS011;3547;50.774;12.918;2024-02-26T13:52:28;6.70;;;4.47;;
7013;SDS011;3547;50.774;12.918;2024-02-26T13:54:57;8.57;;;4.18;;
7013;SDS011;3547;50.774;12.918;2024-02-26T13:57:24;4.28;;;3.88;;
7013;SDS011;3547;50.774;12.918;2024-02-26T13:59:51;6.80;;;4.53;;
7013;SDS011;3547;50.774;12.918;2024-02-26T14:02:17;9.13;;;5.63;;
7013;SDS011;3547;50.774;12.918;2024-02-26T14:04:43;6.00;;;4.57;;
7013;SDS011;3547;50.774;12.918;2024-02-26T14:07:10;7.43;;;4.38;;
7013;SDS011;3547;50.774;12.918;2024-02-26T14:09:38;6.40;;;4.30;;
7013;SDS011;3547;50.774;12.918;2024-02-26T14:12:04;6.60;;;4.93;;
7013;SDS011;3547;50.774;12.918;2024-02-26T14:14:30;7.13;;;4.90;;
7013;SDS011;3547;50.774;12.918;2024-02-26T14:17:01;5.72;;;4.18;;
7013;SDS011;3547;50.774;12.918;2024-02-26T14:19:29;5.25;;;4.07;;
7013;SDS011;3547;50.774;12.918;2024-02-26T14:21:55;4.85;;;4.35;;
7013;SDS011;3547;50.774;12.918;2024-02-26T14:24:21;5.80;;;4.32;;
7013;SDS011;3547;50.774;12.918;2024-02-26T14:26:47;5.18;;;4.05;;
7013;SDS011;3547;50.774;12.918;2024-02-26T14:29:13;7.30;;;4.78;;
7013;SDS011;3547;50.774;12.918;2024-02-26T14:31:40;8.00;;;5.00;;
7013;SDS011;3547;50.774;12.918;2024-02-26T14:34:06;7.93;;;5.50;;
7013;SDS011;3547;50.774;12.918;2024-02-26T14:36:34;7.93;;;5.35;;
7013;SDS011;3547;50.774;12.918;2024-02-26T14:39:00;6.47;;;4.82;;
7013;SDS011;3547;50.774;12.918;2024-02-26T14:41:26;10.73;;;6.10;;
7013;SDS011;3547;50.774;12.918;2024-02-26T14:43:52;7.80;;;5.03;;
7013;SDS011;3547;50.774;12.918;2024-02-26T14:46:19;7.43;;;5.07;;
7013;SDS011;3547;50.774;12.918;2024-02-26T14:48:45;6.53;;;4.75;;
7013;SDS011;3547;50.774;12.918;2024-02-26T14:51:11;8.45;;;5.20;;
7013;SDS011;3547;50.774;12.918;2024-02-26T14:53:37;9.93;;;5.80;;
7013;SDS011;3547;50.774;12.918;2024-02-26T14:56:06;8.50;;;5.93;;
7013;SDS011;3547;50.774;12.918;2024-02-26T14:58:32;9.07;;;6.20;;
7013;SDS011;3547;50.774;12.918;2024-02-26T15:00:58;9.38;;;5.75;;
7013;SDS011;3547;50.774;12.918;2024-02-26T15:03:25;9.13;;;6.20;;
7013;SDS011;3547;50.774;12.918;2024-02-26T15:05:51;13.25;;;6.47;;
7013;SDS011;3547;50.774;12.918;2024-02-26T15:08:17;9.68;;;6.50;;
7013;SDS011;3547;50.774;12.918;2024-02-26T15:10:43;11.70;;;6.57;;
7013;SDS011;3547;50.774;12.918;2024-02-26T15:13:16;11.50;;;7.35;;